Time;durP1;ratioP1;P1;durP2;ratioP2;P2;SDS_P1;SDS_P2;PMS_P1;PMS_P2;Temp;Humidity;BMP_temperature;BMP_pressure;BME280_temperature;BME280_humidity;BME280_pressure;Samples;Min_cycle;Max_cycle;Signal;HPM_P1;HPM_P2
2022/09/14 00:00:00;;;;;;;13.23;11.85;;;;;;;19.39;100.00;99316.47;10237078;28;20091;-73
2022/09/14 00:05:02;;;;;;;11.85;10.85;;;;;;;19.43;99.67;99344.72;10244629;28;20051;-72
2022/09/14 00:10:03;;;;;;;13.13;11.90;;;;;;;19.40;98.76;99345.94;10246765;28;20062;-74
2022/09/14 00:15:06;;;;;;;13.40;12.10;;;;;;;19.34;100.00;99324.34;10237335;28;20053;-73
2022/09/14 00:20:08;;;;;;;13.50;10.88;;;;;;;19.34;100.00;99298.19;10234265;28;20054;-73
2022/09/14 00:25:09;;;;;;;13.05;11.75;;;;;;;19.36;100.00;99296.13;10242941;28;20062;-77
2022/09/14 00:30:11;;;;;;;12.60;11.32;;;;;;;19.34;100.00;99281.19;10241745;28;20054;-76
2022/09/14 00:35:12;;;;;;;14.80;13.32;;;;;;;19.31;100.00;99298.59;10234715;28;20055;-73
2022/09/14 00:40:14;;;;;;;14.73;13.20;;;;;;;19.15;100.00;99298.97;10240100;28;20142;-74
2022/09/14 00:45:21;;;;;;;12.88;11.77;;;;;;;19.18;100.00;99298.56;10245192;28;20049;-78
2022/09/14 00:50:22;;;;;;;12.27;11.10;;;;;;;19.22;100.00;99295.25;10246780;28;20537;-73
2022/09/14 00:55:24;;;;;;;12.98;11.77;;;;;;;19.32;100.00;99281.41;10246825;28;20054;-74
2022/09/14 01:00:28;;;;;;;12.77;10.65;;;;;;;19.36;100.00;99284.50;10237406;28;20047;-75
2022/09/14 01:05:45;;;;;;;13.43;12.23;;;;;;;19.35;100.00;99297.16;10258447;28;20071;-76
2022/09/14 01:11:19;;;;;;;11.55;10.55;;;;;;;19.38;100.00;99299.47;10246482;28;20046;-72
2022/09/14 01:16:26;;;;;;;;;;;;;;;19.33;100.00;99310.00;10239660;28;20042;-77
2022/09/14 01:21:32;;;;;;;12.52;11.43;;;;;;;19.20;100.00;99299.19;10235474;28;19926;-73
2022/09/14 01:26:48;;;;;;;12.63;11.48;;;;;;;19.32;100.00;99297.56;10238262;28;20541;-74
2022/09/14 01:32:09;;;;;;;14.80;13.35;;;;;;;19.32;100.00;99267.91;10240797;28;20061;-77
2022/09/14 01:37:19;;;;;;;15.07;13.52;;;;;;;19.22;100.00;99256.66;10243876;28;20518;-75
2022/09/14 01:42:25;;;;;;;14.15;12.70;;;;;;;19.21;100.00;99252.31;10238981;28;20047;-73
2022/09/14 01:47:52;;;;;;;14.40;13.00;;;;;;;19.22;100.00;99240.47;10260839;28;20046;-75
2022/09/14 01:52:59;;;;;;;11.45;10.45;;;;;;;19.17;100.00;99229.47;10244898;28;20058;-73
2022/09/14 01:58:06;;;;;;;12.68;11.63;;;;;;;19.27;100.00;99231.78;10256609;28;20047;-72
2022/09/14 02:03:14;;;;;;;12.80;11.52;;;;;;;19.25;100.00;99232.81;10241419;28;20051;-72
2022/09/14 02:08:16;;;;;;;12.07;10.93;;;;;;;19.34;100.00;99222.66;10237228;28;20055;-72
2022/09/14 02:13:17;;;;;;;11.98;10.88;;;;;;;19.27;100.00;99205.63;10238094;28;20051;-77
2022/09/14 02:18:20;;;;;;;9.93;9.00;;;;;;;19.30;100.00;99199.81;10236065;28;20054;-72
2022/09/14 02:23:21;;;;;;;8.82;8.13;;;;;;;19.32;100.00;99197.75;10239027;28;20567;-75
2022/09/14 02:28:23;;;;;;;11.15;10.10;;;;;;;19.26;100.00;99201.28;10235226;28;20070;-73
2022/09/14 02:33:44;;;;;;;11.60;10.40;;;;;;;19.18;100.00;99191.50;10235182;28;20093;-73
2022/09/14 02:38:55;;;;;;;12.68;11.32;;;;;;;19.13;100.00;99187.78;10243519;28;20039;-77
2022/09/14 02:44:34;;;;;;;13.15;11.85;;;;;;;19.16;100.00;99187.34;10236719;28;20047;-73
2022/09/14 02:49:43;;;;;;;11.18;10.05;;;;;;;19.22;100.00;99170.34;10244345;28;20051;-78
2022/09/14 02:54:51;;;;;;;14.95;13.45;;;;;;;19.26;100.00;99174.31;10265617;28;20686;-77
2022/09/14 02:59:53;;;;;;;12.98;11.77;;;;;;;19.33;100.00;99180.50;10236537;28;20051;-72
2022/09/14 03:04:55;;;;;;;13.00;11.63;;;;;;;19.25;100.00;99180.72;10230403;28;20061;-73
2022/09/14 03:09:56;;;;;;;14.40;12.75;;;;;;;19.22;100.00;99176.56;10237555;28;20179;-75
2022/09/14 03:14:58;;;;;;;13.55;11.88;;;;;;;19.26;100.00;99187.78;10239783;28;20044;-75
2022/09/14 03:20:00;;;;;;;13.90;12.05;;;;;;;19.26;100.00;99198.59;10241905;28;20066;-79
2022/09/14 03:25:01;;;;;;;11.63;10.50;;;;;;;19.19;100.00;99193.16;10246101;28;20054;-72
2022/09/14 03:30:04;;;;;;;13.40;12.18;;;;;;;19.12;100.00;99191.50;10239004;28;20062;-72
2022/09/14 03:35:06;;;;;;;11.37;10.40;;;;;;;19.09;100.00;99179.25;10232672;28;20051;-73
2022/09/14 03:40:09;;;;;;;11.13;10.13;;;;;;;19.05;100.00;99170.75;10237400;28;20287;-73
2022/09/14 03:45:11;;;;;;;10.63;9.55;;;;;;;19.10;100.00;99174.69;10239516;28;20054;-76
2022/09/14 03:50:14;;;;;;;11.30;10.20;;;;;;;19.14;100.00;99168.69;10236245;28;20062;-76
2022/09/14 03:55:15;;;;;;;11.60;10.50;;;;;;;19.22;100.00;99171.16;10242275;28;20067;-76
2022/09/14 04:00:16;;;;;;;13.10;11.80;;;;;;;19.25;100.00;99159.97;10235719;28;20143;-75
2022/09/14 04:05:18;;;;;;;12.02;10.95;;;;;;;19.21;100.00;99149.78;10239069;28;20051;-74
2022/09/14 04:10:22;;;;;;;13.65;12.35;;;;;;;19.15;100.00;99147.94;10239421;28;20051;-73
2022/09/14 04:15:23;;;;;;;13.38;11.93;;;;;;;19.06;100.00;99137.31;10237667;28;20059;-75
2022/09/14 04:20:25;;;;;;;12.23;11.02;;;;;;;19.08;100.00;99139.84;10237751;28;20852;-72
2022/09/14 04:25:26;;;;;;;13.07;11.73;;;;;;;19.02;100.00;99132.53;10240299;28;20055;-71
2022/09/14 04:30:27;;;;;;;12.82;11.73;;;;;;;18.98;100.00;99132.16;10246327;28;20059;-73
2022/09/14 04:35:29;;;;;;;11.77;10.57;;;;;;;18.91;100.00;99125.91;10245975;28;20047;-77
2022/09/14 04:40:30;;;;;;;10.07;9.18;;;;;;;18.90;100.00;99126.97;10251583;28;20044;-71
2022/09/14 04:45:32;;;;;;;11.10;10.00;;;;;;;18.90;100.00;99124.25;10252613;28;20054;-73
2022/09/14 04:50:33;;;;;;;10.35;9.45;;;;;;;18.90;100.00;99124.25;10248238;28;20051;-76
2022/09/14 04:55:34;;;;;;;9.93;9.13;;;;;;;18.87;100.00;99113.84;10253086;28;20062;-78
2022/09/14 05:00:36;;;;;;;10.57;9.68;;;;;;;18.86;100.00;99114.91;10245686;28;20449;-79
2022/09/14 05:05:37;;;;;;;9.48;8.68;;;;;;;18.81;100.00;99109.25;10239380;28;20050;-77
2022/09/14 05:10:43;;;;;;;8.75;8.00;;;;;;;18.80;100.00;99107.63;10235196;28;20054;-73
2022/09/14 05:15:44;;;;;;;9.18;8.35;;;;;;;18.85;100.00;99105.13;10234209;28;20115;-72
2022/09/14 05:20:45;;;;;;;9.70;8.82;;;;;;;18.79;100.00;99105.94;10231996;28;20055;-77
2022/09/14 05:25:53;;;;;;;9.48;8.68;;;;;;;18.75;100.00;99110.09;10231056;28;20062;-78
2022/09/14 05:30:54;;;;;;;9.85;8.95;;;;;;;18.78;100.00;99115.06;10231001;28;20055;-71
2022/09/14 05:36:00;;;;;;;9.32;8.43;;;;;;;18.71;100.00;99104.28;10237487;28;20142;-74
2022/09/14 05:41:02;;;;;;;9.13;8.23;;;;;;;18.72;100.00;99112.16;10245679;28;20058;-77
2022/09/14 05:46:09;;;;;;;8.25;7.53;;;;;;;18.71;100.00;99112.38;10234372;28;20054;-72
2022/09/14 05:51:15;;;;;;;7.57;6.88;;;;;;;18.70;100.00;99108.00;10220761;28;20077;-75
2022/09/14 05:56:17;;;;;;;7.88;7.18;;;;;;;18.71;100.00;99110.50;10221638;28;20140;-77
2022/09/14 06:01:22;;;;;;;8.15;7.45;;;;;;;18.78;100.00;99104.28;10225138;28;20062;-78
2022/09/14 06:06:23;;;;;;;7.82;7.13;;;;;;;18.84;100.00;99108.84;10226428;28;20718;-76
2022/09/14 06:11:27;;;;;;;9.15;8.27;;;;;;;18.78;100.00;99115.06;10230460;28;20051;-74
2022/09/14 06:16:29;;;;;;;8.63;7.20;;;;;;;18.77;100.00;99108.03;10225089;28;20051;-73
2022/09/14 06:21:33;;;;;;;8.70;8.00;;;;;;;18.75;100.00;99093.91;10223247;28;20118;-77
2022/09/14 06:26:34;;;;;;;8.55;7.75;;;;;;;18.80;100.00;99102.22;10229248;28;20062;-77
2022/09/14 06:31:35;;;;;;;9.60;8.60;;;;;;;18.87;100.00;99092.28;10221881;28;20054;-73
2022/09/14 06:36:37;;;;;;;8.93;8.10;;;;;;;18.84;100.00;99085.44;10239554;28;20062;-74
2022/09/14 06:41:38;;;;;;;9.68;8.88;;;;;;;18.91;100.00;99093.56;10198295;28;20061;-74
2022/09/14 06:46:40;;;;;;;10.73;9.68;;;;;;;18.90;100.00;99086.53;10212971;28;20151;-74
2022/09/14 06:51:49;;;;;;;10.10;9.05;;;;;;;18.98;100.00;99089.00;10224853;28;20066;-74
2022/09/14 06:56:51;;;;;;;9.45;8.57;;;;;;;18.99;100.00;99084.44;10222459;28;20055;-74
2022/09/14 07:01:52;;;;;;;9.32;8.48;;;;;;;18.98;100.00;99089.00;10222179;28;20062;-74
2022/09/14 07:06:53;;;;;;;7.55;6.85;;;;;;;19.08;100.00;99102.91;10221735;28;20069;-77
2022/09/14 07:11:54;;;;;;;8.00;7.28;;;;;;;19.07;100.00;99106.63;10218462;28;20054;-75
2022/09/14 07:16:56;;;;;;;8.07;7.40;;;;;;;19.20;100.00;99099.56;10221762;28;20101;-72
2022/09/14 07:21:57;;;;;;;6.68;6.07;;;;;;;19.31;100.00;99101.66;10220221;28;20506;-71
2022/09/14 07:26:58;;;;;;;6.25;5.75;;;;;;;19.33;100.00;99096.06;10225401;28;20495;-73
2022/09/14 07:32:00;;;;;;;7.35;6.65;;;;;;;19.33;100.00;99086.06;10226113;28;20073;-74
2022/09/14 07:37:01;;;;;;;8.02;7.22;;;;;;;19.35;100.00;99088.56;10221241;28;20055;-78
2022/09/14 07:42:03;;;;;;;7.90;7.10;;;;;;;19.39;100.00;99073.63;10223062;28;20059;-74
2022/09/14 07:47:04;;;;;;;7.63;6.93;;;;;;;19.53;100.00;99074.44;10219564;28;20109;-77
2022/09/14 07:52:05;;;;;;;8.52;7.25;;;;;;;19.61;100.00;99072.34;10224360;28;20046;-77
2022/09/14 07:57:07;;;;;;;7.68;6.78;;;;;;;19.60;100.00;99083.34;10219314;28;21617;-74
2022/09/14 08:02:09;;;;;;;8.38;7.50;;;;;;;19.60;100.00;99092.25;10221737;28;20712;-74
2022/09/14 08:07:11;;;;;;;7.10;6.47;;;;;;;19.46;100.00;99103.31;10219861;28;20053;-79
2022/09/14 08:12:15;;;;;;;7.05;6.45;;;;;;;19.26;100.00;99093.38;10223998;28;20058;-73
2022/09/14 08:17:16;;;;;;;6.13;5.53;;;;;;;19.29;100.00;99111.84;10223787;28;20043;-75
2022/09/14 08:22:18;;;;;;;6.72;6.00;;;;;;;19.24;100.00;99120.53;10237624;28;20065;-75
2022/09/14 08:27:19;;;;;;;6.68;6.07;;;;;;;19.31;100.00;99096.25;10224079;28;20613;-74
2022/09/14 08:32:20;;;;;;;5.95;4.85;;;;;;;19.34;100.00;99124.69;10221109;28;21137;-75
2022/09/14 08:37:21;;;;;;;4.75;4.35;;;;;;;19.32;100.00;99103.31;10223379;28;20039;-73
2022/09/14 08:42:24;;;;;;;9.25;4.68;;;;;;;19.46;100.00;99108.72;10224097;28;20629;-75
2022/09/14 08:47:31;;;;;;;4.70;4.03;;;;;;;19.52;100.00;99115.97;10223393;28;20074;-79
2022/09/14 08:52:39;;;;;;;4.70;4.28;;;;;;;19.53;100.00;99113.06;10223191;28;20369;-77
2022/09/14 08:58:00;;;;;;;5.07;3.60;;;;;;;19.57;100.00;99113.44;10227629;28;21868;-77
2022/09/14 09:03:43;;;;;;;4.68;4.25;;;;;;;19.67;100.00;99119.25;10225415;28;20050;-75
2022/09/14 09:08:52;;;;;;;5.43;4.83;;;;;;;19.90;99.97;99118.00;10223095;28;20051;-78
2022/09/14 09:13:54;;;;;;;5.00;4.15;;;;;;;19.88;100.00;99137.09;10231008;28;20043;-77
2022/09/14 09:19:01;;;;;;;5.03;4.35;;;;;;;19.74;100.00;99147.06;10231342;28;20055;-78
2022/09/14 09:24:30;;;;;;;5.00;4.10;;;;;;;19.70;100.00;99134.22;10253935;28;20051;-77
2022/09/14 09:29:37;;;;;;;6.72;4.90;;;;;;;19.75;100.00;99127.13;10249627;28;20415;-78
2022/09/14 09:34:39;;;;;;;5.30;4.20;;;;;;;19.88;100.00;99114.69;10244647;28;20059;-77
2022/09/14 09:39:41;;;;;;;4.43;3.20;;;;;;;19.85;100.00;99117.81;10246416;28;20142;-81
2022/09/14 09:45:01;;;;;;;3.40;3.07;;;;;;;19.69;100.00;99113.66;10263084;28;21340;-73
2022/09/14 09:50:17;;;;;;;3.75;3.35;;;;;;;19.99;100.00;99105.91;10251975;28;20078;-73
2022/09/14 09:55:20;;;;;;;4.75;4.18;;;;;;;20.07;100.00;99108.38;10237156;28;20057;-74
2022/09/14 10:00:25;;;;;;;4.40;4.00;;;;;;;19.82;100.00;99108.25;10236373;28;20074;-79
2022/09/14 10:05:30;;;;;;;4.90;4.50;;;;;;;19.73;100.00;99104.09;10233566;28;20072;-76
2022/09/14 10:10:34;;;;;;;5.38;4.45;;;;;;;19.93;100.00;99098.66;10247188;28;20407;-75
2022/09/14 10:15:36;;;;;;;5.70;4.10;;;;;;;20.04;100.00;99071.00;10235251;28;20760;-75
2022/09/14 10:20:53;;;;;;;5.75;5.07;;;;;;;20.22;99.79;99077.56;10235328;28;20090;-76
2022/09/14 10:26:12;;;;;;;4.60;4.20;;;;;;;20.12;99.54;99068.03;10255900;28;20065;-81
2022/09/14 10:31:14;;;;;;;4.57;4.18;;;;;;;20.20;97.79;99055.34;10228687;28;20561;-79
2022/09/14 10:36:25;;;;;;;3.72;3.40;;;;;;;20.30;96.64;99039.50;10226011;28;20050;-74
2022/09/14 10:41:48;;;;;;;4.97;4.57;;;;;;;20.55;95.07;99033.28;10226377;28;20081;-77
2022/09/14 10:47:20;;;;;;;5.32;4.93;;;;;;;20.37;94.90;99026.78;10223764;28;20249;-79
2022/09/14 10:52:33;;;;;;;4.60;4.18;;;;;;;20.25;96.13;99040.16;10224244;28;20079;-74
2022/09/14 10:57:47;;;;;;;5.03;4.63;;;;;;;20.16;96.93;99038.72;10219951;28;20057;-78
2022/09/14 11:02:53;;;;;;;;;;;;;;;20.21;95.97;99019.19;10224369;28;20047;-76
2022/09/14 11:08:22;;;;;;;5.28;4.78;;;;;;;20.43;96.67;99016.94;10223695;28;20025;-75
2022/09/14 11:13:30;;;;;;;6.65;5.97;;;;;;;20.35;94.91;99026.16;10225650;28;20050;-73
2022/09/14 11:18:56;;;;;;;6.30;5.80;;;;;;;20.38;96.34;99022.19;10228353;28;20398;-80
2022/09/14 11:24:13;;;;;;;6.45;5.85;;;;;;;20.26;97.20;99008.53;10222004;28;20055;-76
2022/09/14 11:29:27;;;;;;;7.88;7.13;;;;;;;20.33;98.29;99022.84;10227279;28;20069;-79
2022/09/14 11:34:37;;;;;;;8.65;7.90;;;;;;;20.38;98.51;99025.72;10225565;28;20073;-78
2022/09/14 11:39:44;;;;;;;8.70;7.90;;;;;;;20.27;98.97;99027.25;10229450;28;20046;-74
2022/09/14 11:44:51;;;;;;;8.45;7.75;;;;;;;20.33;99.82;99033.66;10228475;28;20106;-76
2022/09/14 11:50:01;;;;;;;8.32;7.50;;;;;;;20.46;99.23;99019.22;10226209;28;20062;-74
2022/09/14 11:55:09;;;;;;;7.72;7.05;;;;;;;20.53;97.53;99016.47;10229310;28;20055;-80
2022/09/14 12:00:23;;;;;;;7.15;6.55;;;;;;;20.75;96.17;99006.97;10224347;28;20059;-73
2022/09/14 12:05:25;;;;;;;;;;;;;;;20.88;94.88;99005.22;10225293;28;20143;-76
2022/09/14 12:10:27;;;;;;;5.60;5.15;;;;;;;21.10;94.47;98998.34;10228301;28;19926;-76
2022/09/14 12:15:28;;;;;;;6.15;5.57;;;;;;;21.51;90.31;99002.34;10226247;28;20055;-74
2022/09/14 12:20:37;;;;;;;6.65;6.03;;;;;;;21.58;90.79;98993.31;10226461;28;20999;-74
2022/09/14 12:25:52;;;;;;;6.88;5.70;;;;;;;21.60;90.10;98989.31;10225040;28;20043;-75
2022/09/14 12:30:54;;;;;;;6.05;5.47;;;;;;;21.43;89.77;98985.53;10233481;28;20054;-78
2022/09/14 12:36:09;;;;;;;6.47;5.88;;;;;;;21.49;90.52;98979.22;10228846;28;20270;-76
2022/09/14 12:41:13;;;;;;;7.18;5.97;;;;;;;21.79;89.78;98984.72;10231908;28;20069;-75
2022/09/14 12:46:21;;;;;;;5.97;5.47;;;;;;;21.54;90.03;98972.09;10256806;28;20043;-81
2022/09/14 12:51:25;;;;;;;6.38;5.78;;;;;;;21.36;91.92;98980.19;10258052;28;20050;-74
2022/09/14 12:56:35;;;;;;;5.85;5.30;;;;;;;21.36;94.37;98989.16;10239516;28;20055;-74
2022/09/14 13:01:50;;;;;;;7.18;6.53;;;;;;;21.35;95.80;98975.84;10242599;28;20524;-76
2022/09/14 13:06:54;;;;;;;6.00;5.07;;;;;;;21.51;96.12;98977.97;10240479;28;20235;-76
2022/09/14 13:12:00;;;;;;;7.80;6.80;;;;;;;21.64;95.12;98968.03;10235520;28;20779;-76
2022/09/14 13:17:04;;;;;;;7.32;6.63;;;;;;;21.70;94.21;98975.25;10229831;28;20076;-74
2022/09/14 13:22:20;;;;;;;9.20;7.53;;;;;;;21.86;94.39;98962.97;10229099;28;20435;-77
2022/09/14 13:27:24;;;;;;;8.23;7.40;;;;;;;21.94;95.63;98937.44;10226569;28;20110;-76
2022/09/14 13:32:25;;;;;;;9.23;8.38;;;;;;;21.83;95.74;98931.75;10232852;28;20093;-74
2022/09/14 13:37:27;;;;;;;10.00;8.23;;;;;;;21.54;96.92;98923.38;10237111;28;21045;-73
2022/09/14 13:42:28;;;;;;;8.23;7.43;;;;;;;21.52;98.40;98930.88;10227580;28;20060;-73
2022/09/14 13:47:30;;;;;;;9.65;8.75;;;;;;;21.50;98.24;98926.78;10233248;28;20058;-77
2022/09/14 13:52:35;;;;;;;11.02;8.75;;;;;;;21.36;98.21;98921.47;10235792;28;20739;-76
2022/09/14 13:58:10;;;;;;;9.00;7.85;;;;;;;21.37;99.13;98908.78;10230462;28;20054;-75
2022/09/14 14:03:24;;;;;;;7.63;6.93;;;;;;;21.35;99.35;98900.06;10230719;28;20543;-76
2022/09/14 14:08:27;;;;;;;;;;;;;;;21.26;99.60;98910.34;10230668;28;20130;-77
2022/09/14 14:13:32;;;;;;;8.10;7.10;;;;;;;21.19;100.00;98891.47;10230033;28;20396;-75
2022/09/14 14:18:38;;;;;;;11.02;7.70;;;;;;;21.12;100.00;98911.53;10220237;28;20050;-73
2022/09/14 14:23:41;;;;;;;8.65;7.75;;;;;;;21.01;100.00;98900.41;10225553;28;20066;-72
2022/09/14 14:29:08;;;;;;;9.43;7.53;;;;;;;21.07;100.00;98906.81;10221456;28;20059;-72
2022/09/14 14:34:17;;;;;;;9.70;8.68;;;;;;;21.02;100.00;98882.34;10221554;28;20060;-76
2022/09/14 14:39:22;;;;;;;8.82;8.02;;;;;;;20.97;100.00;98888.41;10224579;28;20051;-74
2022/09/14 14:44:27;;;;;;;11.48;10.35;;;;;;;20.96;100.00;98884.06;10228330;28;20050;-76
2022/09/14 14:49:28;;;;;;;10.57;9.57;;;;;;;20.90;100.00;98847.09;10227873;28;20049;-77
2022/09/14 14:54:29;;;;;;;10.05;9.02;;;;;;;20.84;100.00;98869.63;10226126;28;20090;-73
2022/09/14 14:59:31;;;;;;;10.90;9.68;;;;;;;20.86;100.00;98855.88;10228416;28;20411;-77
2022/09/14 15:04:32;;;;;;;10.80;9.70;;;;;;;20.77;100.00;98858.88;10229450;28;20043;-77
2022/09/14 15:09:34;;;;;;;10.98;9.90;;;;;;;20.80;100.00;98853.00;10241241;28;20065;-71
2022/09/14 15:14:35;;;;;;;11.98;10.68;;;;;;;20.81;100.00;98854.66;10229379;28;20062;-76
2022/09/14 15:19:37;;;;;;;11.45;10.38;;;;;;;20.82;100.00;98856.34;10233130;28;20050;-73
2022/09/14 15:24:38;;;;;;;11.38;10.20;;;;;;;20.90;100.00;98851.69;10234021;28;20046;-76
2022/09/14 15:29:40;;;;;;;11.32;10.13;;;;;;;20.98;100.00;98856.78;10232927;28;20149;-78
2022/09/14 15:34:41;;;;;;;12.60;11.27;;;;;;;20.99;100.00;98850.31;10232678;28;21098;-75
2022/09/14 15:39:43;;;;;;;12.38;10.45;;;;;;;20.95;100.00;98832.88;10237440;28;20394;-74
2022/09/14 15:44:50;;;;;;;12.45;11.15;;;;;;;21.00;100.00;98819.50;10219960;28;20047;-74
2022/09/14 15:49:51;;;;;;;11.80;10.60;;;;;;;21.06;100.00;98828.59;10262135;28;20050;-73
2022/09/14 15:54:54;;;;;;;13.05;11.82;;;;;;;21.03;100.00;98829.88;10225539;28;20058;-74
2022/09/14 15:59:55;;;;;;;12.48;11.38;;;;;;;21.01;100.00;98810.34;10220747;28;20046;-73
2022/09/14 16:04:56;;;;;;;15.48;13.40;;;;;;;20.98;100.00;98810.78;10231521;28;20424;-79
2022/09/14 16:09:57;;;;;;;13.32;12.02;;;;;;;20.92;100.00;98807.09;10237189;28;20058;-74
2022/09/14 16:14:59;;;;;;;13.95;11.43;;;;;;;20.86;100.00;98824.25;10238957;28;20055;-75
2022/09/14 16:20:02;;;;;;;13.38;11.98;;;;;;;20.90;100.00;98820.03;10239049;28;20069;-76
2022/09/14 16:25:04;;;;;;;13.52;12.23;;;;;;;20.96;100.00;98845.38;10237254;28;20046;-77
2022/09/14 16:30:06;;;;;;;14.73;13.23;;;;;;;20.85;100.00;98849.63;10235923;28;20051;-75
2022/09/14 16:35:09;;;;;;;15.05;13.63;;;;;;;20.80;100.00;98831.38;10238681;28;21215;-77
2022/09/14 16:40:11;;;;;;;15.82;14.20;;;;;;;20.75;100.00;98814.19;10235210;28;20063;-75
2022/09/14 16:45:13;;;;;;;17.17;15.23;;;;;;;20.77;100.00;98814.78;10235814;28;20069;-80
2022/09/14 16:50:14;;;;;;;15.50;14.05;;;;;;;20.75;100.00;98828.53;10233859;28;20059;-77
2022/09/14 16:55:15;;;;;;;16.25;14.60;;;;;;;20.75;100.00;98831.22;10229757;28;20050;-77
2022/09/14 17:00:17;;;;;;;14.00;12.68;;;;;;;20.71;100.00;98816.50;10241676;28;20063;-73
2022/09/14 17:05:19;;;;;;;13.52;12.13;;;;;;;20.80;100.00;98809.75;10241518;28;20143;-76
2022/09/14 17:10:20;;;;;;;12.65;11.45;;;;;;;20.78;100.00;98801.03;10233085;28;20050;-75
2022/09/14 17:15:21;;;;;;;13.48;12.18;;;;;;;20.79;100.00;98808.09;10232151;28;20058;-75
2022/09/14 17:20:23;;;;;;;14.30;12.85;;;;;;;20.72;100.00;98787.59;10233761;28;20058;-75
2022/09/14 17:25:24;;;;;;;13.77;12.38;;;;;;;20.72;100.00;98799.25;10234196;28;20058;-74
2022/09/14 17:30:25;;;;;;;10.95;9.93;;;;;;;20.74;100.00;98847.69;10232211;28;20059;-75
2022/09/14 17:35:27;;;;;;;9.88;7.55;;;;;;;20.63;100.00;98873.56;10249401;28;20145;-76
2022/09/14 17:40:29;;;;;;;12.70;9.57;;;;;;;20.60;100.00;98844.25;10241255;28;20055;-72
2022/09/14 17:45:31;;;;;;;9.97;8.67;;;;;;;20.65;100.00;98852.50;10258946;28;20051;-76
2022/09/14 17:50:32;;;;;;;7.00;6.10;;;;;;;20.59;100.00;98851.53;10236139;28;20051;-75
2022/09/14 17:55:33;;;;;;;5.03;4.35;;;;;;;20.34;100.00;98854.25;10239381;28;20042;-73
2022/09/14 18:00:35;;;;;;;4.30;3.90;;;;;;;20.35;100.00;98855.91;10238212;28;20175;-73
2022/09/14 18:05:36;;;;;;;7.00;4.70;;;;;;;20.44;100.00;98865.38;10235396;28;20094;-72
2022/09/14 18:10:38;;;;;;;6.28;4.45;;;;;;;20.50;100.00;98860.97;10225765;28;20050;-72
2022/09/14 18:15:39;;;;;;;3.45;2.88;;;;;;;20.39;100.00;98865.25;10229456;28;20073;-74
2022/09/14 18:20:40;;;;;;;3.15;2.58;;;;;;;20.24;100.00;98891.78;10222732;28;20070;-74
2022/09/14 18:25:42;;;;;;;5.53;2.60;;;;;;;20.19;100.00;98883.47;10223903;28;20473;-79
2022/09/14 18:30:43;;;;;;;5.10;2.40;;;;;;;20.14;100.00;98882.25;10227814;28;20062;-76
2022/09/14 18:35:45;;;;;;;3.63;2.03;;;;;;;20.20;100.00;98885.97;10230736;28;20062;-75
2022/09/14 18:40:46;;;;;;;3.17;2.42;;;;;;;20.22;100.00;98897.41;10228569;28;20053;-76
2022/09/14 18:45:48;;;;;;;4.03;2.25;;;;;;;20.27;100.00;98902.13;10225818;28;20050;-75
2022/09/14 18:50:49;;;;;;;4.22;3.38;;;;;;;20.23;100.00;98903.63;10229149;28;20058;-74
2022/09/14 18:55:50;;;;;;;4.43;3.10;;;;;;;20.23;100.00;98917.13;10224992;28;20095;-77
2022/09/14 19:00:52;;;;;;;6.95;4.50;;;;;;;20.16;100.00;98914.44;10228256;28;20058;-74
2022/09/14 19:05:53;;;;;;;4.97;3.47;;;;;;;20.04;100.00;98927.84;10226714;28;20074;-74
2022/09/14 19:10:54;;;;;;;4.70;3.42;;;;;;;20.02;100.00;98932.63;10223837;28;20059;-78
2022/09/14 19:15:56;;;;;;;4.55;3.55;;;;;;;19.99;100.00;98938.47;10223791;28;20054;-71
2022/09/14 19:21:12;;;;;;;3.33;2.30;;;;;;;19.88;100.00;98942.69;10231758;28;20051;-74
2022/09/14 19:26:15;;;;;;;3.40;2.50;;;;;;;19.78;100.00;98945.84;10233595;28;20235;-77
2022/09/14 19:31:18;;;;;;;4.65;2.92;;;;;;;19.61;100.00;98941.97;10248140;28;20051;-75
2022/09/14 19:36:21;;;;;;;4.43;2.57;;;;;;;19.56;100.00;98944.47;10235713;28;20043;-74
2022/09/14 19:41:24;;;;;;;3.58;1.90;;;;;;;19.61;100.00;98953.56;10232066;28;20055;-74
2022/09/14 19:46:26;;;;;;;2.53;2.00;;;;;;;19.66;100.00;98941.31;10233924;28;20062;-74
2022/09/14 19:51:29;;;;;;;4.43;2.00;;;;;;;19.63;100.00;98953.34;10234037;28;20102;-75
2022/09/14 19:56:31;;;;;;;3.28;2.30;;;;;;;19.61;100.00;98974.34;10252586;28;20055;-77
2022/09/14 20:01:35;;;;;;;3.03;2.03;;;;;;;19.64;100.00;98979.31;10231449;28;20058;-77
2022/09/14 20:06:39;;;;;;;4.32;2.63;;;;;;;19.62;100.00;98981.38;10230464;28;20059;-76
2022/09/14 20:11:43;;;;;;;4.10;3.67;;;;;;;19.48;100.00;98979.78;10209937;28;22151;-75
2022/09/14 20:16:46;;;;;;;4.95;2.67;;;;;;;19.41;100.00;98975.25;10197006;28;20051;-76
2022/09/14 20:21:49;;;;;;;;;;;;;;;19.26;100.00;98971.97;10234943;28;20465;-74
2022/09/14 20:26:53;;;;;;;3.47;1.63;;;;;;;19.03;100.00;98973.25;10242688;28;19960;-75
2022/09/14 20:31:56;;;;;;;4.05;2.00;;;;;;;18.92;100.00;98973.88;10229583;28;20059;-79
2022/09/14 20:37:00;;;;;;;2.63;2.25;;;;;;;18.96;100.00;98977.00;10222473;28;20743;-72
2022/09/14 20:42:01;;;;;;;3.58;2.15;;;;;;;18.93;100.00;98977.41;10229474;28;20058;-72
2022/09/14 20:47:03;;;;;;;2.97;1.95;;;;;;;19.02;100.00;98981.53;10233399;28;20055;-71
2022/09/14 20:52:04;;;;;;;4.03;2.53;;;;;;;19.05;100.00;98981.13;10228473;28;20047;-72
2022/09/14 20:57:05;;;;;;;4.07;3.67;;;;;;;18.96;100.00;98985.06;10232715;28;20046;-72
2022/09/14 21:02:08;;;;;;;3.60;2.80;;;;;;;18.98;100.00;98989.22;10239385;28;20058;-75
2022/09/14 21:07:10;;;;;;;5.40;3.40;;;;;;;18.94;100.00;98995.25;10239647;28;20065;-72
2022/09/14 21:12:13;;;;;;;3.38;2.40;;;;;;;19.01;100.00;98998.78;10240676;28;20931;-75
2022/09/14 21:17:16;;;;;;;4.03;3.00;;;;;;;19.05;100.00;99000.84;10255736;28;20160;-74
2022/09/14 21:22:17;;;;;;;2.97;2.67;;;;;;;19.01;100.00;99002.28;10237966;28;20142;-77
2022/09/14 21:27:19;;;;;;;4.82;3.17;;;;;;;18.95;100.00;99002.31;10235701;28;20055;-73
2022/09/14 21:32:20;;;;;;;4.05;2.90;;;;;;;18.93;100.00;99007.06;10240284;28;20569;-76
2022/09/14 21:37:21;;;;;;;3.40;3.05;;;;;;;18.85;100.00;99002.69;10237946;28;20046;-74
2022/09/14 21:42:23;;;;;;;5.05;3.33;;;;;;;18.84;100.00;99001.88;10237732;28;20050;-76
2022/09/14 21:47:24;;;;;;;4.78;3.72;;;;;;;18.88;100.00;99007.69;10244764;28;20074;-72
2022/09/14 21:52:26;;;;;;;4.97;3.40;;;;;;;19.01;100.00;99015.78;10240048;28;20778;-75
2022/09/14 21:57:27;;;;;;;4.70;3.20;;;;;;;19.11;100.00;99022.59;10234041;28;20081;-76
2022/09/14 22:02:28;;;;;;;3.47;2.72;;;;;;;19.14;100.00;99014.94;10238535;28;20140;-75
2022/09/14 22:07:30;;;;;;;3.80;3.50;;;;;;;19.08;100.00;99018.47;10235834;28;20054;-75
2022/09/14 22:12:32;;;;;;;2.60;2.40;;;;;;;19.00;100.00;99022.19;10232092;28;20062;-74
2022/09/14 22:17:34;;;;;;;1.83;1.35;;;;;;;19.00;100.00;99018.69;10235967;28;20164;-74
2022/09/14 22:22:35;;;;;;;1.60;1.35;;;;;;;18.96;100.00;99007.50;10243558;28;20051;-72
2022/09/14 22:27:38;;;;;;;1.65;1.38;;;;;;;18.98;100.00;99013.50;10237730;28;20070;-76
2022/09/14 22:32:39;;;;;;;3.13;1.50;;;;;;;19.03;100.00;99008.28;10243987;28;20050;-73
2022/09/14 22:37:40;;;;;;;1.67;1.38;;;;;;;18.98;100.00;99020.78;10239649;28;20636;-73
2022/09/14 22:42:41;;;;;;;1.20;1.10;;;;;;;18.92;100.00;99014.34;10233476;28;20139;-75
2022/09/14 22:47:45;;;;;;;1.67;1.58;;;;;;;18.98;100.00;99013.50;10231339;28;20058;-74
2022/09/14 22:52:46;;;;;;;2.58;1.70;;;;;;;19.03;100.00;99027.16;10241808;28;20047;-73
2022/09/14 22:57:48;;;;;;;1.83;1.50;;;;;;;19.00;100.00;99015.97;10241626;28;20490;-73
2022/09/14 23:02:50;;;;;;;1.92;1.55;;;;;;;19.04;100.00;99012.66;10234363;28;20051;-73
2022/09/14 23:07:51;;;;;;;1.98;1.77;;;;;;;19.00;100.00;99022.19;10239143;28;20057;-74
2022/09/14 23:12:53;;;;;;;1.52;1.42;;;;;;;19.03;100.00;99021.78;10240745;28;20090;-75